Time;durP1;ratioP1;P1;durP2;ratioP2;P2;SDS_P1;SDS_P2;PMS_P1;PMS_P2;Temp;Humidity;BMP_temperature;BMP_pressure;BME280_temperature;BME280_humidity;BME280_pressure;Samples;Min_cycle;Max_cycle;Signal;HPM_P1;HPM_P2
2023/10/09 00:01:46;;;;;;;2.20;1.30;;;13.20;99.90;;;;;;5033024;28;20433;-60
2023/10/09 00:04:13;;;;;;;2.00;1.30;;;13.20;99.90;;;;;;5033201;28;20467;-60
2023/10/09 00:06:41;;;;;;;4.70;2.63;;;13.20;99.90;;;;;;5033166;28;20455;-59
2023/10/09 00:09:30;;;;;;;6.23;1.67;;;13.30;99.90;;;;;;5032769;28;20453;-59
2023/10/09 00:11:57;;;;;;;2.57;1.70;;;13.30;99.90;;;;;;5032725;28;20432;-59
2023/10/09 00:14:25;;;;;;;3.50;1.60;;;13.30;99.90;;;;;;5032735;28;20842;-59
2023/10/09 00:17:05;;;;;;;2.33;1.20;;;13.30;99.90;;;;;;5033114;28;20490;-60
2023/10/09 00:19:32;;;;;;;2.90;1.50;;;13.30;99.90;;;;;;5033223;28;20429;-60
2023/10/09 00:22:04;;;;;;;1.73;1.50;;;13.30;99.90;;;;;;5033006;28;20479;-60
2023/10/09 00:24:33;;;;;;;3.80;1.30;;;13.30;99.90;;;;;;5032526;28;20788;-59
2023/10/09 00:27:11;;;;;;;4.90;2.40;;;13.30;99.90;;;;;;5032668;28;20543;-59
2023/10/09 00:29:42;;;;;;;3.00;1.43;;;13.30;99.90;;;;;;5036363;28;20435;-58
2023/10/09 00:32:16;;;;;;;4.10;1.47;;;13.30;99.90;;;;;;5037092;28;20441;-60
2023/10/09 00:34:43;;;;;;;2.87;1.50;;;13.30;99.90;;;;;;5037499;28;20521;-59
2023/10/09 00:37:16;;;;;;;8.33;1.40;;;13.30;99.90;;;;;;5037747;28;20483;-59
2023/10/09 00:39:43;;;;;;;2.03;1.73;;;13.30;99.90;;;;;;5037229;28;20428;-58
2023/10/09 00:42:14;;;;;;;2.53;1.83;;;13.30;99.90;;;;;;5036820;28;20576;-59
2023/10/09 00:44:41;;;;;;;2.80;1.20;;;13.30;99.90;;;;;;5037552;28;20486;-59
2023/10/09 00:47:21;;;;;;;6.20;1.67;;;13.40;99.90;;;;;;5036796;28;20471;-60
2023/10/09 00:49:54;;;;;;;2.33;1.70;;;13.40;99.90;;;;;;5038188;28;20440;-60
2023/10/09 00:52:31;;;;;;;2.00;1.50;;;13.40;99.90;;;;;;5037598;28;20453;-60
2023/10/09 00:55:01;;;;;;;2.63;1.60;;;13.40;99.90;;;;;;5036245;28;20884;-61
2023/10/09 00:57:31;;;;;;;3.80;1.80;;;13.40;99.90;;;;;;5037133;28;20571;-59
2023/10/09 01:00:00;;;;;;;2.80;1.90;;;13.40;99.90;;;;;;5036754;28;20442;-59
2023/10/09 01:02:35;;;;;;;7.63;1.50;;;13.40;99.90;;;;;;5036628;28;20456;-60
2023/10/09 01:05:19;;;;;;;3.53;1.70;;;13.40;99.90;;;;;;5036417;28;20965;-60
2023/10/09 01:07:48;;;;;;;5.10;1.80;;;13.40;99.90;;;;;;5036172;28;20905;-60
2023/10/09 01:10:17;;;;;;;2.60;1.70;;;13.40;99.90;;;;;;5036353;28;20534;-60
2023/10/09 01:12:46;;;;;;;5.53;2.63;;;13.40;99.90;;;;;;5036278;28;20468;-60
2023/10/09 01:15:35;;;;;;;5.23;2.00;;;13.40;99.90;;;;;;5036241;28;20558;-60
2023/10/09 01:18:07;;;;;;;4.90;1.70;;;13.40;99.90;;;;;;5036271;28;20495;-60
2023/10/09 01:20:41;;;;;;;3.33;2.00;;;13.40;99.90;;;;;;5036164;28;20444;-60
2023/10/09 01:23:11;;;;;;;2.40;1.77;;;13.40;99.90;;;;;;5036038;28;20432;-60
2023/10/09 01:25:44;;;;;;;2.37;1.90;;;13.50;99.90;;;;;;5035710;28;20449;-60
2023/10/09 01:28:13;;;;;;;3.77;2.10;;;13.50;99.90;;;;;;5036541;28;20429;-60
2023/10/09 01:30:41;;;;;;;2.90;2.10;;;13.50;99.90;;;;;;5035868;28;20455;-60
2023/10/09 01:33:27;;;;;;;4.20;1.87;;;13.50;99.90;;;;;;5035963;28;20838;-60
2023/10/09 01:35:59;;;;;;;5.50;2.23;;;13.50;99.90;;;;;;5035894;28;20786;-60
2023/10/09 01:38:40;;;;;;;2.03;1.23;;;13.50;99.90;;;;;;5035241;28;20501;-60
2023/10/09 01:41:09;;;;;;;3.53;2.20;;;13.50;99.90;;;;;;5035617;28;20811;-60
2023/10/09 01:43:35;;;;;;;2.93;2.00;;;13.50;99.90;;;;;;5035875;28;20464;-60
2023/10/09 01:46:04;;;;;;;2.80;1.70;;;13.50;99.90;;;;;;5035435;28;20830;-61
2023/10/09 01:48:35;;;;;;;3.30;1.60;;;13.50;99.90;;;;;;5035859;28;20452;-60
2023/10/09 01:51:04;;;;;;;4.40;1.87;;;13.50;99.90;;;;;;5035885;28;20468;-61
2023/10/09 01:53:33;;;;;;;4.33;1.70;;;13.50;99.90;;;;;;5035939;28;20468;-60
2023/10/09 01:56:14;;;;;;;3.30;2.33;;;13.50;99.90;;;;;;5035316;28;20954;-59
2023/10/09 01:58:42;;;;;;;2.27;1.80;;;13.50;99.90;;;;;;5035684;28;20552;-59
2023/10/09 02:01:09;;;;;;;2.37;1.70;;;13.50;99.90;;;;;;5035570;28;20449;-59
2023/10/09 02:03:38;;;;;;;3.67;2.30;;;13.40;99.90;;;;;;5035473;28;20464;-60
2023/10/09 02:06:18;;;;;;;5.27;1.80;;;13.40;99.90;;;;;;5035149;28;20453;-59
2023/10/09 02:08:49;;;;;;;3.37;2.10;;;13.40;99.90;;;;;;5035061;28;20902;-60
2023/10/09 02:11:24;;;;;;;3.10;1.80;;;13.40;99.90;;;;;;5035403;28;20512;-60
2023/10/09 02:13:55;;;;;;;3.10;1.87;;;13.40;99.90;;;;;;5034995;28;20475;-60
2023/10/09 02:16:29;;;;;;;3.27;1.97;;;13.40;99.90;;;;;;5035445;28;20435;-60
2023/10/09 02:18:58;;;;;;;3.00;2.07;;;13.40;99.90;;;;;;5035083;28;20873;-60
2023/10/09 02:21:39;;;;;;;3.60;2.10;;;13.40;99.90;;;;;;5035093;28;20452;-60
2023/10/09 02:24:26;;;;;;;5.20;2.50;;;13.40;99.90;;;;;;5034837;28;20551;-60
2023/10/09 02:27:07;;;;;;;3.17;2.10;;;13.40;99.90;;;;;;5035019;28;20504;-60
2023/10/09 02:29:35;;;;;;;2.80;2.20;;;13.40;99.90;;;;;;5034994;28;20458;-60
2023/10/09 02:32:13;;;;;;;2.47;2.20;;;13.40;99.90;;;;;;5034876;28;20448;-60
2023/10/09 02:34:40;;;;;;;5.33;2.10;;;13.30;99.90;;;;;;5067712;22;20486;-57
2023/10/09 02:37:11;;;;;;;6.03;2.37;;;13.30;99.90;;;;;;5054367;28;20486;-56
2023/10/09 02:39:43;;;;;;;6.40;3.07;;;13.30;99.90;;;;;;5054259;28;20813;-56
2023/10/09 02:42:23;;;;;;;3.87;2.30;;;13.30;99.90;;;;;;5054567;28;20434;-58
2023/10/09 02:44:51;;;;;;;4.50;2.37;;;13.30;99.90;;;;;;5054396;28;20485;-58
2023/10/09 02:47:20;;;;;;;5.17;2.40;;;13.20;99.90;;;;;;5054393;28;20852;-56
2023/10/09 02:49:50;;;;;;;5.27;2.03;;;13.20;99.90;;;;;;5054310;28;20444;-57
2023/10/09 02:52:24;;;;;;;6.40;3.00;;;13.20;99.90;;;;;;5053281;28;20444;-56
2023/10/09 02:54:59;;;;;;;4.20;2.70;;;13.20;99.90;;;;;;5054692;28;20504;-57
2023/10/09 02:57:29;;;;;;;3.43;2.47;;;13.20;99.90;;;;;;5054346;28;20464;-56
2023/10/09 02:59:55;;;;;;;5.00;2.80;;;13.20;99.90;;;;;;5054700;28;20519;-56
2023/10/09 03:02:24;;;;;;;3.63;2.93;;;13.10;99.90;;;;;;5054507;28;20472;-56
2023/10/09 03:04:54;;;;;;;4.30;2.37;;;13.10;99.90;;;;;;5054207;28;20463;-56
2023/10/09 03:07:23;;;;;;;5.30;3.17;;;13.10;99.90;;;;;;5054798;28;20518;-56
2023/10/09 03:09:51;;;;;;;6.23;2.57;;;13.10;99.90;;;;;;5054688;28;20461;-56
2023/10/09 03:12:18;;;;;;;4.57;2.53;;;13.10;99.90;;;;;;5054774;28;20451;-56
2023/10/09 03:14:45;;;;;;;5.70;3.03;;;13.20;99.90;;;;;;5054035;28;20554;-56
2023/10/09 03:17:12;;;;;;;6.60;3.27;;;13.20;99.90;;;;;;5054355;28;20942;-56
2023/10/09 03:19:39;;;;;;;6.40;3.10;;;13.20;99.90;;;;;;5054313;28;20522;-57
2023/10/09 03:22:09;;;;;;;7.43;2.60;;;13.20;99.90;;;;;;5054680;28;20455;-57
2023/10/09 03:24:36;;;;;;;5.20;3.30;;;13.20;99.90;;;;;;5053584;28;20525;-57
2023/10/09 03:27:04;;;;;;;6.47;3.60;;;13.20;99.90;;;;;;5053425;28;20482;-57
2023/10/09 03:29:31;;;;;;;6.17;3.50;;;13.30;99.90;;;;;;5053373;28;20967;-57
2023/10/09 03:32:00;;;;;;;5.27;3.00;;;13.20;99.90;;;;;;5053420;28;20531;-58
2023/10/09 03:34:27;;;;;;;4.47;3.10;;;13.30;99.90;;;;;;5053131;28;20479;-57
2023/10/09 03:37:03;;;;;;;5.63;2.90;;;13.30;99.90;;;;;;5053453;28;20440;-57
2023/10/09 03:42:19;;;;;;;5.80;3.50;;;13.30;99.90;;;;;;5050655;28;20436;-57
2023/10/09 03:44:52;;;;;;;7.70;3.90;;;13.30;99.90;;;;;;5053221;28;20991;-59
2023/10/09 03:47:22;;;;;;;5.40;3.20;;;13.30;99.90;;;;;;5053387;28;20544;-58
2023/10/09 03:49:51;;;;;;;5.53;3.70;;;13.30;99.90;;;;;;5053164;28;20527;-56
2023/10/09 03:52:19;;;;;;;6.70;3.77;;;13.30;99.90;;;;;;5052892;28;20820;-58
2023/10/09 03:54:46;;;;;;;5.90;4.10;;;13.30;99.90;;;;;;5053290;28;20479;-59
2023/10/09 03:57:18;;;;;;;6.30;3.77;;;13.30;99.90;;;;;;5053001;28;20941;-59
2023/10/09 03:59:46;;;;;;;7.30;3.50;;;13.30;99.90;;;;;;5053486;28;20897;-57
2023/10/09 04:02:13;;;;;;;8.87;4.40;;;13.30;99.90;;;;;;5053248;28;20505;-57
2023/10/09 04:04:45;;;;;;;5.77;4.00;;;13.30;99.90;;;;;;5053514;28;20905;-60
2023/10/09 04:07:12;;;;;;;7.50;4.33;;;13.30;99.90;;;;;;5053059;28;20535;-57
2023/10/09 04:12:24;;;;;;;10.07;5.83;;;13.30;99.90;;;;;;5091712;28;20553;-58
2023/10/09 04:14:54;;;;;;;14.60;5.13;;;13.30;99.90;;;;;;5090657;28;20458;-57
2023/10/09 04:17:34;;;;;;;10.90;5.03;;;13.30;99.90;;;;;;5090400;28;20817;-57
2023/10/09 04:23:04;;;;;;;7.33;4.43;;;13.40;99.90;;;;;;5028514;28;20426;-57
2023/10/09 04:25:41;;;;;;;7.50;4.77;;;13.30;99.90;;;;;;5078484;28;20905;-58
2023/10/09 04:28:18;;;;;;;9.50;4.93;;;13.30;99.90;;;;;;5090984;28;20509;-57
2023/10/09 04:30:53;;;;;;;9.33;5.70;;;13.30;99.90;;;;;;5090065;28;20476;-57
2023/10/09 04:33:34;;;;;;;10.27;5.30;;;13.20;99.90;;;;;;5090347;28;20422;-57
2023/10/09 04:36:22;;;;;;;9.80;5.80;;;13.20;99.90;;;;;;5090235;28;20946;-57
2023/10/09 04:42:19;;;;;;;17.73;8.40;;;13.20;99.90;;;;;;5152578;27;20520;-57
2023/10/09 04:45:18;;;;;;;14.33;8.27;;;13.20;99.90;;;;;;5151802;27;20547;-56
2023/10/09 04:47:57;;;;;;;16.30;10.17;;;13.30;99.90;;;;;;5151740;27;20518;-57
2023/10/09 04:55:55;;;;;;;20.93;14.60;;;13.40;99.90;;;;;;5151396;27;20496;-57
2023/10/09 04:58:26;;;;;;;30.50;17.60;;;13.40;99.90;;;;;;5151598;27;20527;-57
2023/10/09 05:01:12;;;;;;;38.63;19.67;;;13.50;99.90;;;;;;5151204;27;20468;-58
2023/10/09 05:03:52;;;;;;;40.13;22.03;;;13.50;99.90;;;;;;5151506;27;20428;-58
2023/10/09 05:06:32;;;;;;;47.90;21.90;;;13.60;99.90;;;;;;5151596;27;20476;-58
2023/10/09 05:09:07;;;;;;;39.80;22.30;;;13.60;99.90;;;;;;5151333;27;20427;-58
2023/10/09 05:11:53;;;;;;;46.03;22.43;;;13.70;99.90;;;;;;5151195;27;20427;-57
2023/10/09 05:14:37;;;;;;;46.73;23.50;;;13.70;99.90;;;;;;5151457;27;20465;-57
2023/10/09 05:17:04;;;;;;;47.87;23.87;;;13.70;99.90;;;;;;5151266;27;20432;-58
2023/10/09 05:19:41;;;;;;;46.07;24.23;;;13.70;99.90;;;;;;5151225;27;20499;-57
2023/10/09 05:22:09;;;;;;;47.23;24.10;;;13.70;99.90;;;;;;5151005;27;20877;-57
2023/10/09 05:24:46;;;;;;;48.03;24.03;;;13.70;99.90;;;;;;5150900;27;20999;-57
2023/10/09 05:27:17;;;;;;;53.43;26.00;;;13.70;99.90;;;;;;5151398;27;20434;-58
2023/10/09 05:30:12;;;;;;;48.03;25.40;;;13.70;99.90;;;;;;5150671;27;20912;-58
2023/10/09 05:32:48;;;;;;;49.83;25.63;;;13.70;99.90;;;;;;5151100;27;20429;-57
2023/10/09 05:35:16;;;;;;;53.43;26.10;;;13.70;99.90;;;;;;5150755;27;20885;-59
2023/10/09 05:37:45;;;;;;;47.50;24.80;;;13.70;99.90;;;;;;5150914;27;20790;-59
2023/10/09 05:40:30;;;;;;;54.10;26.00;;;13.70;99.90;;;;;;5150909;27;20477;-59
2023/10/09 05:42:59;;;;;;;53.37;26.13;;;13.70;99.90;;;;;;5151283;27;20456;-59
2023/10/09 05:57:45;;;;;;;53.80;26.20;;;13.70;99.90;;;;;;5090867;28;20572;-58
2023/10/09 06:08:07;;;;;;;49.50;27.37;;;13.70;99.90;;;;;;5089909;28;20426;-59
2023/10/09 06:10:40;;;;;;;52.93;26.67;;;13.70;99.90;;;;;;5090033;28;20914;-58
2023/10/09 06:13:37;;;;;;;48.60;25.43;;;13.70;99.90;;;;;;5090734;28;20442;-58
2023/10/09 06:18:53;;;;;;;49.93;27.60;;;13.60;99.90;;;;;;5072415;28;20872;-59
2023/10/09 06:24:14;;;;;;;53.60;26.80;;;13.70;99.90;;;;;;5089410;28;20463;-58
2023/10/09 06:26:51;;;;;;;56.70;25.90;;;13.70;99.90;;;;;;5090181;28;20453;-58
2023/10/09 06:29:35;;;;;;;52.47;25.57;;;13.70;99.90;;;;;;5089613;28;20795;-58
2023/10/09 06:32:23;;;;;;;54.93;26.87;;;13.70;99.90;;;;;;5090293;28;20427;-58
2023/10/09 06:34:52;;;;;;;49.50;28.00;;;13.70;99.90;;;;;;5089902;28;20473;-58
2023/10/09 06:37:19;;;;;;;49.60;24.87;;;13.70;99.90;;;;;;5089689;28;20449;-58
2023/10/09 06:42:55;;;;;;;57.50;28.47;;;13.70;99.90;;;;;;5089738;28;20438;-59
2023/10/09 06:45:43;;;;;;;50.70;25.53;;;13.70;99.90;;;;;;5094150;28;20457;-58
2023/10/09 06:48:40;;;;;;;48.57;26.93;;;13.70;99.90;;;;;;5093273;28;20444;-58
2023/10/09 06:51:03;;;;;;;50.00;26.70;;;13.70;99.90;;;;;;5089860;28;20789;-58
2023/10/09 06:53:58;;;;;;;55.83;27.27;;;13.80;99.90;;;;;;5089483;28;20425;-58
2023/10/09 06:57:01;;;;;;;47.07;25.93;;;13.80;99.90;;;;;;5089190;28;20480;-58
2023/10/09 06:59:16;;;;;;;50.70;26.33;;;13.80;99.90;;;;;;5089057;28;20441;-58
2023/10/09 07:01:46;;;;;;;50.50;24.43;;;13.80;99.90;;;;;;5089108;28;20448;-58
2023/10/09 07:04:18;;;;;;;49.87;25.20;;;13.90;99.90;;;;;;5089268;28;20500;-58
2023/10/09 07:06:56;;;;;;;49.03;24.63;;;13.90;99.90;;;;;;5083771;28;20416;-58
2023/10/09 07:09:23;;;;;;;46.00;25.80;;;13.90;99.90;;;;;;5075595;28;20778;-58
2023/10/09 07:12:09;;;;;;;41.53;23.63;;;13.90;99.90;;;;;;5075406;28;20439;-59
2023/10/09 07:17:26;;;;;;;42.90;22.70;;;14.00;99.90;;;;;;5043890;28;20438;-58
2023/10/09 07:20:08;;;;;;;42.03;22.50;;;14.00;99.90;;;;;;5075384;28;20430;-58
2023/10/09 07:22:52;;;;;;;45.43;23.30;;;14.10;99.90;;;;;;5075904;28;20419;-58
2023/10/09 07:25:27;;;;;;;43.60;24.20;;;14.10;99.90;;;;;;5074931;28;20805;-57
2023/10/09 07:27:55;;;;;;;46.03;24.40;;;14.10;99.90;;;;;;5075711;28;20512;-57
2023/10/09 07:33:17;;;;;;;40.50;24.80;;;14.10;99.90;;;;;;5075051;28;20435;-57
2023/10/09 07:35:48;;;;;;;39.63;22.77;;;14.10;99.90;;;;;;5074946;28;20482;-57
2023/10/09 07:38:20;;;;;;;39.40;22.47;;;14.10;99.90;;;;;;5074887;28;20416;-58
2023/10/09 07:40:56;;;;;;;49.07;25.70;;;14.10;99.90;;;;;;5074873;28;20428;-59
2023/10/09 07:43:26;;;;;;;49.40;26.27;;;14.10;99.90;;;;;;5074627;28;20421;-57
2023/10/09 07:48:52;;;;;;;40.77;24.33;;;14.20;99.90;;;;;;5074700;28;20843;-57
2023/10/09 07:51:22;;;;;;;51.37;23.50;;;14.20;99.90;;;;;;5074598;28;20423;-57
2023/10/09 07:53:56;;;;;;;32.73;22.17;;;14.20;99.90;;;;;;5074192;28;20467;-57
2023/10/09 07:56:24;;;;;;;51.63;25.67;;;14.20;99.90;;;;;;5074156;28;20528;-59
2023/10/09 07:58:51;;;;;;;40.50;23.93;;;14.30;99.90;;;;;;5074809;28;20446;-57
2023/10/09 08:01:23;;;;;;;46.30;26.10;;;14.30;99.90;;;;;;5074569;28;20439;-57
2023/10/09 08:04:01;;;;;;;46.50;24.13;;;14.30;99.90;;;;;;5074493;28;20461;-59
2023/10/09 08:06:42;;;;;;;42.80;23.57;;;14.40;99.90;;;;;;5074155;28;20435;-58
2023/10/09 08:09:19;;;;;;;44.43;24.60;;;14.40;99.90;;;;;;5074706;28;20530;-58
2023/10/09 08:12:38;;;;;;;39.80;23.73;;;14.40;99.90;;;;;;5073764;28;20463;-58
2023/10/09 08:15:20;;;;;;;37.17;23.17;;;14.50;99.90;;;;;;5073869;28;20491;-59
2023/10/09 08:17:50;;;;;;;36.50;24.00;;;14.50;99.90;;;;;;5073922;28;20489;-58
2023/10/09 08:20:24;;;;;;;33.70;22.93;;;14.60;99.90;;;;;;5073607;28;20431;-58
2023/10/09 08:22:52;;;;;;;33.23;21.13;;;14.70;99.90;;;;;;5074312;28;20431;-58
2023/10/09 08:25:29;;;;;;;39.37;22.83;;;14.70;99.90;;;;;;5074815;28;20477;-57
2023/10/09 08:27:57;;;;;;;35.83;21.63;;;14.70;99.90;;;;;;5074136;28;20521;-57
2023/10/09 08:30:44;;;;;;;27.97;20.30;;;14.80;99.90;;;;;;5074244;28;20447;-56
2023/10/09 08:36:01;;;;;;;25.90;18.97;;;14.90;99.90;;;;;;5074290;28;20450;-56
2023/10/09 08:38:33;;;;;;;28.93;17.70;;;15.00;99.90;;;;;;5074017;28;20424;-57
2023/10/09 08:41:15;;;;;;;35.10;19.93;;;15.00;99.90;;;;;;5073995;28;20523;-58
2023/10/09 08:43:50;;;;;;;26.00;16.57;;;15.10;99.90;;;;;;5074081;28;20420;-58
2023/10/09 08:46:20;;;;;;;30.97;19.23;;;15.10;99.90;;;;;;5073574;28;20476;-58
2023/10/09 08:48:47;;;;;;;24.97;15.90;;;15.20;99.90;;;;;;5074143;28;20440;-58
2023/10/09 08:51:16;;;;;;;21.40;15.20;;;15.30;99.90;;;;;;5074301;28;20470;-58
2023/10/09 08:53:45;;;;;;;19.00;14.13;;;15.30;99.90;;;;;;5073739;28;20455;-59
2023/10/09 08:56:14;;;;;;;22.80;15.40;;;15.30;99.90;;;;;;5073597;28;20493;-61
2023/10/09 08:58:41;;;;;;;18.90;14.83;;;15.30;99.90;;;;;;5073965;28;20443;-60
2023/10/09 09:01:08;;;;;;;21.07;15.80;;;15.30;99.90;;;;;;5073501;28;20498;-60
2023/10/09 09:03:43;;;;;;;25.00;15.27;;;15.30;99.90;;;;;;5073057;28;20449;-58
2023/10/09 09:06:11;;;;;;;25.67;16.07;;;15.30;99.90;;;;;;5073663;28;20435;-59
2023/10/09 09:08:40;;;;;;;21.97;15.33;;;15.30;99.90;;;;;;5072849;28;20440;-59
2023/10/09 09:11:14;;;;;;;18.57;14.40;;;15.30;99.90;;;;;;5073375;28;20517;-59
2023/10/09 09:13:48;;;;;;;18.27;14.10;;;15.30;99.90;;;;;;5072819;28;20908;-59
2023/10/09 09:16:16;;;;;;;19.90;14.50;;;15.30;99.90;;;;;;5074603;28;20463;-60
2023/10/09 09:19:03;;;;;;;20.57;13.13;;;15.30;99.90;;;;;;5074180;28;20446;-60
2023/10/09 09:21:37;;;;;;;19.90;15.20;;;15.30;99.90;;;;;;5076447;28;20466;-59
2023/10/09 09:24:15;;;;;;;18.63;13.30;;;15.40;99.90;;;;;;5076266;28;20472;-60
2023/10/09 09:26:45;;;;;;;22.37;12.50;;;15.40;99.90;;;;;;5073918;28;20442;-60
2023/10/09 09:29:17;;;;;;;20.10;11.97;;;15.50;99.90;;;;;;5073765;28;20423;-60
2023/10/09 09:31:53;;;;;;;22.40;13.50;;;15.60;99.90;;;;;;5073825;28;20420;-60
2023/10/09 09:34:25;;;;;;;17.10;11.87;;;15.60;99.90;;;;;;5073456;28;20459;-60
2023/10/09 09:36:54;;;;;;;21.60;13.67;;;15.60;99.90;;;;;;5072994;28;20464;-61
2023/10/09 09:39:29;;;;;;;23.83;15.50;;;15.60;99.90;;;;;;5073097;28;20443;-60
2023/10/09 09:41:57;;;;;;;17.43;12.83;;;15.50;99.90;;;;;;5073240;28;20485;-59
2023/10/09 09:44:30;;;;;;;25.27;15.30;;;15.50;99.90;;;;;;5073206;28;20474;-60
2023/10/09 09:47:00;;;;;;;23.57;15.03;;;15.50;99.90;;;;;;5072767;28;20482;-59
2023/10/09 09:49:31;;;;;;;25.30;15.60;;;15.40;99.90;;;;;;5073231;28;20522;-61
2023/10/09 09:51:59;;;;;;;26.40;16.87;;;15.40;99.90;;;;;;5072863;28;20435;-61
2023/10/09 09:54:32;;;;;;;27.20;16.90;;;15.30;99.90;;;;;;5072766;28;20486;-60
2023/10/09 09:57:08;;;;;;;25.20;16.17;;;15.30;99.90;;;;;;5072984;28;20521;-60
2023/10/09 09:59:49;;;;;;;28.90;18.13;;;15.20;99.90;;;;;;5072817;28;20443;-60
2023/10/09 10:02:21;;;;;;;29.03;19.00;;;15.20;99.90;;;;;;5072304;28;20428;-60
2023/10/09 10:04:50;;;;;;;30.10;18.70;;;15.20;99.90;;;;;;5072122;28;20459;-61
2023/10/09 10:07:21;;;;;;;33.70;20.80;;;15.10;99.90;;;;;;5072452;28;20465;-59
2023/10/09 10:09:54;;;;;;;40.70;21.37;;;15.10;99.90;;;;;;5072643;28;20498;-60
2023/10/09 10:13:00;;;;;;;31.40;21.23;;;15.10;99.90;;;;;;5073485;28;20431;-60
2023/10/09 10:16:01;;;;;;;37.97;24.63;;;15.10;99.90;;;;;;5072242;28;20561;-59
2023/10/09 10:18:33;;;;;;;35.83;21.47;;;15.10;99.90;;;;;;5072094;28;20913;-60
2023/10/09 10:21:16;;;;;;;36.03;23.10;;;15.10;99.90;;;;;;5072447;28;20518;-61
2023/10/09 10:23:47;;;;;;;41.43;24.00;;;15.10;99.90;;;;;;5072327;28;20531;-60
2023/10/09 10:26:25;;;;;;;35.40;23.27;;;15.00;99.90;;;;;;5072301;28;20427;-62
2023/10/09 10:29:23;;;;;;;33.23;23.60;;;15.10;99.90;;;;;;5072285;28;20425;-61
2023/10/09 10:31:56;;;;;;;35.43;22.10;;;15.00;99.90;;;;;;5072375;28;20542;-61
2023/10/09 10:34:24;;;;;;;36.33;22.00;;;15.00;99.90;;;;;;5072118;28;20553;-62
2023/10/09 10:36:58;;;;;;;30.73;22.57;;;15.00;99.90;;;;;;5072288;28;20475;-61
2023/10/09 10:39:42;;;;;;;30.17;22.13;;;15.00;99.90;;;;;;5072077;28;20885;-61
2023/10/09 10:42:15;;;;;;;35.67;23.00;;;15.00;99.90;;;;;;5073674;28;20441;-61
2023/10/09 10:44:45;;;;;;;32.57;23.07;;;15.00;99.90;;;;;;5076167;28;20459;-61
2023/10/09 10:47:24;;;;;;;38.00;22.60;;;15.00;99.90;;;;;;5075689;28;20435;-61
2023/10/09 10:49:57;;;;;;;34.90;22.10;;;15.00;99.90;;;;;;5076014;28;20423;-60
2023/10/09 10:52:41;;;;;;;28.73;19.70;;;15.00;99.90;;;;;;5075772;28;20481;-60
2023/10/09 10:55:48;;;;;;;30.40;21.77;;;14.90;99.90;;;;;;5075742;28;20844;-61
2023/10/09 10:58:23;;;;;;;35.83;22.47;;;14.90;99.90;;;;;;5075201;28;20517;-60
2023/10/09 11:03:54;;;;;;;32.10;22.00;;;15.00;99.90;;;;;;5075663;28;20421;-62
2023/10/09 11:09:21;;;;;;;29.90;21.40;;;15.00;99.90;;;;;;5075245;28;20432;-62
2023/10/09 11:11:50;;;;;;;33.07;22.90;;;15.10;99.90;;;;;;5075497;28;20428;-62
2023/10/09 11:14:23;;;;;;;27.47;21.23;;;15.10;99.90;;;;;;5075335;28;20798;-61
2023/10/09 11:16:50;;;;;;;29.57;21.03;;;15.20;99.90;;;;;;5075384;28;20589;-63
2023/10/09 11:19:31;;;;;;;27.30;22.50;;;15.20;99.90;;;;;;5074760;28;20522;-61
2023/10/09 11:22:27;;;;;;;30.30;21.40;;;15.20;99.90;;;;;;5075207;28;20522;-60
2023/10/09 11:25:00;;;;;;;35.50;23.80;;;15.20;99.90;;;;;;5074614;28;20525;-60
2023/10/09 11:27:32;;;;;;;31.17;24.17;;;15.20;99.90;;;;;;5075107;28;20427;-61
2023/10/09 11:30:21;;;;;;;29.63;24.20;;;15.30;99.90;;;;;;5075476;28;20531;-60
2023/10/09 11:32:49;;;;;;;28.77;22.93;;;15.30;99.90;;;;;;5074869;28;20446;-60
2023/10/09 11:35:20;;;;;;;32.00;24.10;;;15.30;99.90;;;;;;5075339;28;20471;-61
2023/10/09 11:37:56;;;;;;;37.30;24.50;;;15.30;99.90;;;;;;5074933;28;20469;-61
2023/10/09 11:40:33;;;;;;;33.50;22.60;;;15.30;99.90;;;;;;5075291;28;20423;-62
2023/10/09 11:43:02;;;;;;;29.50;23.60;;;15.30;99.90;;;;;;5074832;28;20501;-61
2023/10/09 11:45:31;;;;;;;32.57;24.40;;;15.30;99.90;;;;;;5074752;28;20463;-61
2023/10/09 11:48:02;;;;;;;31.47;23.87;;;15.30;99.90;;;;;;5075050;28;20496;-62
2023/10/09 11:50:44;;;;;;;28.67;21.07;;;15.30;99.90;;;;;;5074686;28;20435;-61
2023/10/09 11:53:34;;;;;;;31.43;23.40;;;15.20;99.90;;;;;;5074666;28;20542;-61
2023/10/09 11:56:00;;;;;;;30.10;21.70;;;15.30;99.90;;;;;;5074368;28;20528;-61
2023/10/09 11:58:27;;;;;;;33.47;23.47;;;15.30;99.90;;;;;;5074941;28;20514;-61
2023/10/09 12:00:59;;;;;;;29.60;21.90;;;15.30;99.90;;;;;;5074646;28;20435;-61
2023/10/09 12:03:29;;;;;;;31.40;22.60;;;15.30;99.90;;;;;;5074890;28;20848;-61
2023/10/09 12:05:57;;;;;;;27.13;22.43;;;15.30;99.90;;;;;;5074700;28;20428;-61
2023/10/09 12:08:26;;;;;;;27.27;21.40;;;15.30;99.90;;;;;;5074533;28;20434;-61
2023/10/09 12:10:55;;;;;;;30.37;21.80;;;15.30;99.90;;;;;;5074431;28;20447;-61
2023/10/09 12:13:22;;;;;;;27.27;21.00;;;15.30;99.90;;;;;;5074062;28;20439;-62
2023/10/09 12:15:52;;;;;;;29.17;21.60;;;15.30;99.90;;;;;;5073880;28;20447;-62
2023/10/09 12:18:21;;;;;;;30.33;21.67;;;15.40;99.90;;;;;;5075202;28;20519;-61
2023/10/09 12:20:50;;;;;;;26.17;20.30;;;15.40;99.90;;;;;;5074311;28;20454;-61
2023/10/09 12:23:18;;;;;;;28.23;22.80;;;15.40;99.90;;;;;;5074171;28;20438;-61
2023/10/09 12:25:45;;;;;;;25.40;20.37;;;15.40;99.90;;;;;;5074573;28;20542;-61
2023/10/09 12:28:13;;;;;;;29.40;22.50;;;15.40;99.90;;;;;;5073595;28;20436;-60
2023/10/09 12:30:41;;;;;;;26.27;20.00;;;15.40;99.90;;;;;;5074243;28;20443;-61
2023/10/09 12:33:09;;;;;;;29.97;20.90;;;15.40;99.90;;;;;;5073692;28;20440;-60
2023/10/09 12:35:41;;;;;;;26.07;20.17;;;15.40;99.90;;;;;;5073675;28;20514;-61
2023/10/09 12:38:09;;;;;;;26.87;21.67;;;15.40;99.90;;;;;;5074034;28;21015;-61
2023/10/09 12:40:39;;;;;;;29.80;22.07;;;15.40;99.90;;;;;;5073384;28;20448;-61
2023/10/09 12:43:15;;;;;;;32.40;24.27;;;15.40;99.90;;;;;;5073614;28;20454;-61
2023/10/09 12:45:42;;;;;;;29.33;22.00;;;15.40;99.90;;;;;;5073467;28;20516;-60
2023/10/09 12:48:09;;;;;;;29.93;21.07;;;15.40;99.90;;;;;;5073544;28;20435;-61
2023/10/09 12:50:41;;;;;;;32.43;23.47;;;15.40;99.90;;;;;;5073443;28;21008;-60
2023/10/09 12:53:10;;;;;;;35.10;25.60;;;15.40;99.90;;;;;;5074207;28;20431;-62
2023/10/09 12:55:40;;;;;;;32.20;22.93;;;15.40;99.90;;;;;;5073273;28;21127;-62
2023/10/09 12:58:08;;;;;;;32.37;23.23;;;15.50;99.90;;;;;;5073656;28;20522;-60
2023/10/09 13:00:39;;;;;;;33.70;24.10;;;15.50;99.90;;;;;;5073663;28;20816;-60
2023/10/09 13:03:16;;;;;;;30.60;23.20;;;15.60;99.90;;;;;;5073473;28;20439;-61
2023/10/09 13:05:53;;;;;;;37.33;25.33;;;15.70;99.90;;;;;;5073090;28;20471;-61
2023/10/09 13:08:22;;;;;;;30.47;23.93;;;15.70;99.90;;;;;;5073803;28;20423;-62
2023/10/09 13:10:58;;;;;;;31.27;22.80;;;15.90;99.90;;;;;;5073214;28;20953;-61
2023/10/09 13:13:36;;;;;;;30.10;20.60;;;16.00;99.90;;;;;;5073634;28;20451;-60
2023/10/09 13:16:06;;;;;;;25.30;20.43;;;16.00;99.90;;;;;;5073427;28;20433;-59
2023/10/09 13:18:33;;;;;;;27.40;20.07;;;16.00;99.90;;;;;;5073826;28;20479;-62
2023/10/09 13:21:03;;;;;;;25.90;20.70;;;15.90;99.90;;;;;;5073682;28;20447;-62
2023/10/09 13:23:38;;;;;;;26.87;20.57;;;15.90;99.90;;;;;;5073789;28;20431;-61
2023/10/09 13:26:17;;;;;;;22.60;19.77;;;15.90;99.90;;;;;;5074091;28;20503;-61
2023/10/09 13:28:45;;;;;;;28.83;20.90;;;15.90;99.90;;;;;;5073238;28;20436;-60
2023/10/09 13:31:14;;;;;;;24.93;19.50;;;16.00;99.90;;;;;;5073318;28;20444;-61
2023/10/09 13:33:42;;;;;;;24.77;20.53;;;16.00;99.90;;;;;;5073070;28;20541;-60
2023/10/09 13:36:17;;;;;;;24.83;20.37;;;16.00;99.90;;;;;;5074189;28;20443;-62
2023/10/09 13:38:45;;;;;;;28.37;21.23;;;16.00;99.90;;;;;;5075740;28;20862;-66
2023/10/09 13:41:14;;;;;;;24.47;20.80;;;16.00;99.90;;;;;;5074946;28;20517;-61
2023/10/09 13:43:42;;;;;;;25.07;19.90;;;16.00;99.90;;;;;;5073036;28;20442;-62
2023/10/09 13:46:11;;;;;;;24.30;21.70;;;16.00;99.90;;;;;;5073514;28;20479;-61
2023/10/09 13:48:40;;;;;;;27.40;20.77;;;16.00;99.90;;;;;;5073420;28;20449;-61
2023/10/09 13:51:13;;;;;;;24.70;20.20;;;16.00;99.90;;;;;;5073473;28;20448;-61
2023/10/09 13:53:44;;;;;;;24.27;19.73;;;16.00;99.90;;;;;;5073260;28;20442;-61
2023/10/09 13:56:18;;;;;;;23.53;19.37;;;16.10;99.90;;;;;;5072809;28;20459;-59
2023/10/09 13:58:45;;;;;;;21.80;19.20;;;16.10;99.90;;;;;;5072789;28;20468;-61
2023/10/09 14:01:20;;;;;;;21.10;17.27;;;16.10;99.90;;;;;;5072952;28;20451;-61
2023/10/09 14:03:49;;;;;;;23.77;20.50;;;16.00;99.90;;;;;;5072950;28;20604;-61
2023/10/09 14:06:19;;;;;;;22.83;19.20;;;16.00;99.90;;;;;;5072564;28;20440;-61
2023/10/09 14:08:46;;;;;;;22.90;20.53;;;16.00;99.90;;;;;;5072404;28;20451;-60